createdAt,value
2018-10-11T00:00:32.071Z,84.55
2018-10-11T00:01:32.058Z,84.55
2018-10-11T00:02:32.044Z,84.35
2018-10-11T00:03:32.034Z,84.66
2018-10-11T00:04:32.025Z,84.66
2018-10-11T00:05:32.014Z,85.06
2018-10-11T00:06:32.004Z,85.27
2018-10-11T00:07:31.992Z,85.57
2018-10-11T00:08:31.981Z,85.57
2018-10-11T00:09:31.967Z,85.91
2018-10-11T00:10:31.958Z,86.12
2018-10-11T00:11:31.948Z,86.32
2018-10-11T00:12:31.937Z,85.81
2018-10-11T00:13:31.925Z,85.51
2018-10-11T00:14:31.915Z,85.41
2018-10-11T00:15:31.901Z,86.02
2018-10-11T00:16:31.892Z,85.91
2018-10-11T00:17:31.886Z,86.02
2018-10-11T00:18:31.870Z,86.22
2018-10-11T00:19:31.860Z,86.12
2018-10-11T00:20:31.850Z,85.81
2018-10-11T00:21:31.838Z,85.81
2018-10-11T00:22:31.827Z,85.91
2018-10-11T00:23:31.816Z,86.02
2018-10-11T00:24:31.806Z,86.43
2018-10-11T00:25:31.795Z,85.81
2018-10-11T00:26:31.782Z,85.91
2018-10-11T00:27:31.772Z,85.61
2018-10-11T00:28:31.759Z,86.02
2018-10-11T00:29:31.753Z,86.12
2018-10-11T00:30:31.740Z,86.43
2018-10-11T00:31:31.726Z,85.91
2018-10-11T00:32:31.718Z,86.02
2018-10-11T00:33:31.706Z,85.61
2018-10-11T00:34:31.693Z,85.51
2018-10-11T00:35:31.683Z,86.22
2018-10-11T00:36:31.673Z,86.32
2018-10-11T00:37:31.663Z,86.02
2018-10-11T00:38:31.653Z,85.91
2018-10-11T00:39:31.639Z,85.81
2018-10-11T00:40:31.628Z,85.81
2018-10-11T00:41:31.624Z,85.81
2018-10-11T00:42:31.607Z,85.91
2018-10-11T00:43:31.595Z,85.91
2018-10-11T00:44:31.587Z,85.91
2018-10-11T00:45:31.574Z,86.02
2018-10-11T00:46:31.563Z,86.02
2018-10-11T00:47:31.553Z,86.12
2018-10-11T00:48:31.541Z,86.22
2018-10-11T00:49:31.572Z,86.22
2018-10-11T00:50:31.519Z,86.32
2018-10-11T00:51:31.509Z,86.22
2018-10-11T00:52:31.498Z,86.16
2018-10-11T00:53:31.484Z,86.16
2018-10-11T00:54:31.474Z,86.16
2018-10-11T00:55:31.463Z,86.37
2018-10-11T00:56:31.453Z,86.32
2018-10-11T00:57:31.440Z,86.22
2018-10-11T00:58:31.430Z,86.26
2018-10-11T00:59:31.420Z,86.46
2018-10-11T01:00:31.408Z,86.16
2018-10-11T01:01:31.398Z,86.05
2018-10-11T01:02:31.386Z,86.16
2018-10-11T01:03:31.381Z,86.16
2018-10-11T01:04:31.367Z,86.16
2018-10-11T01:05:31.354Z,86.46
2018-10-11T01:06:31.342Z,86.37
2018-10-11T01:07:31.332Z,86.46
2018-10-11T01:08:31.319Z,86.57
2018-10-11T01:09:31.471Z,86.67
2018-10-11T01:10:31.298Z,86.57
2018-10-11T01:20:18.115Z,87.53
2018-10-11T01:21:18.102Z,87.53
2018-10-11T01:22:18.092Z,87.93
2018-10-11T01:23:18.087Z,87.83
2018-10-11T01:24:18.071Z,87.56
2018-10-11T01:25:18.060Z,87.97
2018-10-11T01:26:18.049Z,88.07
2018-10-11T01:27:18.039Z,88.38
2018-10-11T01:28:18.027Z,88.07
2018-10-11T01:29:18.018Z,88.38
2018-10-11T01:30:18.007Z,88.14
2018-10-11T01:31:17.998Z,88.34
2018-10-11T01:32:17.983Z,88.34
2018-10-11T01:33:17.975Z,88.24
2018-10-11T01:34:17.962Z,87.62
2018-10-11T01:35:17.951Z,87.62
2018-10-11T01:36:17.940Z,87.73
2018-10-11T01:37:17.931Z,87.42
2018-10-11T01:38:17.922Z,87.62
2018-10-11T01:39:17.908Z,87.83
2018-10-11T01:40:17.901Z,87.22
2018-10-11T01:41:17.892Z,87.53
2018-10-11T01:42:17.874Z,87.53
2018-10-11T01:43:17.872Z,87.93
2018-10-11T01:44:17.857Z,88.03
2018-10-11T01:45:17.845Z,88.14
2018-10-11T01:46:17.834Z,88.14
2018-10-11T01:47:17.822Z,88.24
2018-10-11T01:48:17.810Z,88.14
2018-10-11T01:49:17.802Z,87.73
2018-10-11T01:50:17.790Z,87.67
2018-10-11T01:51:17.778Z,88.07
2018-10-11T01:52:17.768Z,88.38
2018-10-11T01:53:17.758Z,88.48
2018-10-11T01:54:17.748Z,89.14
2018-10-11T01:55:17.738Z,89.14
2018-10-11T01:56:17.724Z,89.34
2018-10-11T01:57:17.716Z,89.75
2018-10-11T01:58:17.710Z,89.55
2018-10-11T01:59:17.826Z,89.64
2018-10-11T02:00:17.690Z,89.75
2018-10-11T02:01:17.671Z,89.81
2018-10-11T02:02:17.660Z,89.50
2018-10-11T02:03:17.649Z,89.24
2018-10-11T02:04:17.639Z,89.34
2018-10-11T02:05:17.627Z,90.36
2018-10-11T02:06:17.617Z,90.36
2018-10-11T02:07:17.607Z,90.67
2018-10-11T02:08:17.594Z,90.67
2018-10-11T02:09:17.588Z,90.57
2018-10-11T02:10:17.574Z,90.57
2018-10-11T02:11:17.562Z,90.77
2018-10-11T02:12:17.550Z,90.16
2018-10-11T02:13:17.539Z,90.40
2018-10-11T02:14:17.529Z,90.50
2018-10-11T02:15:17.518Z,90.81
2018-10-11T02:16:17.507Z,90.20
2018-10-11T02:17:17.501Z,90.20
2018-10-11T02:18:17.485Z,90.03
2018-10-11T02:19:17.474Z,90.24
2018-10-11T02:20:17.465Z,90.55
2018-10-11T02:21:17.465Z,90.75
2018-10-11T02:22:17.440Z,90.96
2018-10-11T02:23:17.431Z,91.00
2018-10-11T02:24:17.421Z,90.89
2018-10-11T02:25:17.415Z,91.20
2018-10-11T02:26:17.399Z,91.10
2018-10-11T02:27:17.389Z,91.61
2018-10-11T02:28:17.378Z,92.12
2018-10-11T02:29:17.367Z,92.23
2018-10-11T02:30:17.358Z,92.12
2018-10-11T02:31:17.346Z,92.32
2018-10-11T02:32:17.335Z,92.63
2018-10-11T02:33:17.322Z,92.53
2018-10-11T02:34:17.330Z,92.37
2018-10-11T02:35:17.303Z,91.65
2018-10-11T02:36:17.291Z,91.35
2018-10-11T02:37:17.280Z,91.45
2018-10-11T02:38:17.270Z,91.86
2018-10-11T02:39:17.260Z,92.57
2018-10-11T02:40:17.248Z,93.09
2018-10-11T02:41:17.236Z,93.39
2018-10-11T02:42:17.224Z,92.88
2018-10-11T02:43:17.216Z,92.37
2018-10-11T02:44:17.206Z,92.47
2018-10-11T02:45:17.192Z,92.92
2018-10-11T02:46:17.181Z,93.23
2018-10-11T02:47:17.172Z,93.43
2018-10-11T02:48:17.161Z,93.43
2018-10-11T02:49:17.148Z,93.64
2018-10-11T02:50:17.137Z,93.64
2018-10-11T02:51:17.129Z,93.74
2018-10-11T02:52:17.117Z,93.64
2018-10-11T02:53:17.105Z,93.90
2018-10-11T02:54:17.097Z,93.90
2018-10-11T02:55:17.086Z,93.90
2018-10-11T02:56:17.073Z,93.59
2018-10-11T02:57:17.062Z,93.18
2018-10-11T02:58:17.054Z,92.98
2018-10-11T02:59:17.042Z,92.77
2018-10-11T03:00:17.029Z,92.77
2018-10-11T03:01:17.020Z,92.37
2018-10-11T03:02:17.007Z,92.68
2018-10-11T03:03:16.998Z,92.47
2018-10-11T03:04:16.986Z,92.57
2018-10-11T03:05:16.974Z,92.68
2018-10-11T03:06:16.965Z,92.77
2018-10-11T03:07:16.956Z,93.02
2018-10-11T03:08:16.946Z,92.88
2018-10-11T03:09:16.932Z,93.02
2018-10-11T03:10:16.921Z,93.02
2018-10-11T03:11:16.911Z,92.92
2018-10-11T03:12:16.900Z,92.82
2018-10-11T03:13:16.888Z,93.13
2018-10-11T03:14:16.877Z,93.13
2018-10-11T03:15:16.866Z,93.23
2018-10-11T03:16:16.857Z,92.92
2018-10-11T03:17:16.848Z,93.23
2018-10-11T03:18:16.837Z,93.13
2018-10-11T03:19:16.824Z,93.43
2018-10-11T03:20:16.812Z,93.54
2018-10-11T03:21:16.803Z,93.54
2018-10-11T03:22:16.790Z,93.43
2018-10-11T03:23:16.780Z,92.82
2018-10-11T03:24:16.783Z,93.13
2018-10-11T03:25:16.758Z,93.43
2018-10-11T03:26:16.750Z,93.33
2018-10-11T03:27:16.738Z,93.23
2018-10-11T03:28:16.725Z,93.54
2018-10-11T03:29:16.715Z,93.43
2018-10-11T03:30:16.715Z,93.18
2018-10-11T03:31:16.693Z,93.18
2018-10-11T03:32:16.682Z,92.88
2018-10-11T03:33:16.672Z,93.09
2018-10-11T03:34:16.669Z,92.88
2018-10-11T03:35:16.651Z,92.88
2018-10-11T03:36:16.639Z,92.57
2018-10-11T03:37:16.628Z,92.88
2018-10-11T03:38:16.618Z,92.77
2018-10-11T03:39:16.606Z,92.77
2018-10-11T03:40:16.595Z,92.77
2018-10-11T03:41:16.586Z,92.72
2018-10-11T03:42:16.575Z,92.82
2018-10-11T03:43:16.563Z,92.92
2018-10-11T03:44:16.553Z,92.82
2018-10-11T03:45:16.542Z,93.23
2018-10-11T03:46:16.530Z,93.23
2018-10-11T03:47:16.519Z,92.92
2018-10-11T03:48:16.507Z,93.13
2018-10-11T03:49:16.499Z,93.13
2018-10-11T03:50:16.486Z,92.92
2018-10-11T03:51:16.476Z,93.13
2018-10-11T03:52:16.472Z,92.82
2018-10-11T03:53:16.456Z,92.92
2018-10-11T03:54:16.446Z,93.13
2018-10-11T03:55:16.432Z,92.82
2018-10-11T03:56:16.426Z,93.02
2018-10-11T03:57:16.420Z,92.92
2018-10-11T03:58:16.404Z,92.96
2018-10-11T03:59:16.391Z,93.07
2018-10-11T04:00:16.381Z,92.87
2018-10-11T04:01:16.369Z,93.07
2018-10-11T04:02:16.359Z,93.48
2018-10-11T04:03:16.348Z,93.68
2018-10-11T04:04:16.343Z,93.68
2018-10-11T04:05:16.325Z,93.48
2018-10-11T04:06:16.312Z,93.07
2018-10-11T04:07:16.303Z,92.96
2018-10-11T04:08:16.294Z,93.28
2018-10-11T04:09:16.283Z,93.58
2018-10-11T04:10:16.272Z,93.28
2018-10-11T04:11:16.262Z,93.37
2018-10-11T04:12:16.249Z,93.58
2018-10-11T04:13:16.239Z,93.37
2018-10-11T04:14:16.232Z,93.48
2018-10-11T04:15:16.217Z,93.68
2018-10-11T04:16:16.205Z,93.68
2018-10-11T04:17:16.196Z,93.28
2018-10-11T04:18:16.184Z,93.48
2018-10-11T04:19:16.173Z,93.68
2018-10-11T04:20:16.161Z,93.68
2018-10-11T04:21:16.152Z,93.37
2018-10-11T04:22:16.140Z,93.17
2018-10-11T04:23:16.132Z,93.48
2018-10-11T04:24:16.120Z,93.48
2018-10-11T04:25:16.109Z,93.58
2018-10-11T04:26:16.098Z,93.07
2018-10-11T04:27:16.087Z,92.87
2018-10-11T04:28:16.076Z,93.07
2018-10-11T04:29:16.063Z,93.11
2018-10-11T04:30:16.054Z,93.42
2018-10-11T04:31:16.040Z,93.32
2018-10-11T04:32:16.035Z,94.14
2018-10-11T04:33:16.021Z,94.65
2018-10-11T04:34:16.012Z,94.85
2018-10-11T04:35:15.999Z,94.85
2018-10-11T04:36:16.079Z,94.54
2018-10-11T04:37:15.976Z,93.89
2018-10-11T04:38:15.965Z,93.73
2018-10-11T04:39:15.956Z,93.52
2018-10-11T04:40:15.946Z,93.52
2018-10-11T04:41:15.932Z,93.73
2018-10-11T04:42:15.923Z,93.93
2018-10-11T04:43:16.084Z,94.14
2018-10-11T04:44:15.900Z,94.14
2018-10-11T04:45:15.888Z,94.28
2018-10-11T04:46:15.879Z,94.39
2018-10-11T04:47:15.869Z,94.59
2018-10-11T04:48:15.856Z,94.59
2018-10-11T04:49:15.845Z,94.69
2018-10-11T04:50:15.834Z,94.39
2018-10-11T04:51:15.825Z,94.18
2018-10-11T04:52:15.813Z,94.28
2018-10-11T04:53:15.801Z,94.39
2018-10-11T04:54:15.793Z,94.28
2018-10-11T04:55:15.780Z,94.07
2018-10-11T04:56:15.768Z,94.18
2018-10-11T04:57:15.759Z,94.28
2018-10-11T04:58:15.748Z,94.28
2018-10-11T04:59:15.737Z,94.18
2018-10-11T05:00:15.725Z,94.18
2018-10-11T05:01:15.716Z,94.69
2018-10-11T05:02:15.706Z,94.39
2018-10-11T05:03:15.696Z,94.48
2018-10-11T05:04:15.684Z,94.69
2018-10-11T05:05:15.678Z,94.48
2018-10-11T05:06:15.660Z,94.69
2018-10-11T05:07:15.652Z,94.79
2018-10-11T05:08:15.641Z,94.79
2018-10-11T05:09:15.631Z,94.59
2018-10-11T05:10:15.616Z,94.39
2018-10-11T05:11:15.606Z,94.48
2018-10-11T05:12:15.597Z,94.59
2018-10-11T05:13:15.585Z,94.69
2018-10-11T05:14:15.592Z,94.59
2018-10-11T05:15:15.564Z,94.59
2018-10-11T05:16:15.553Z,94.28
2018-10-11T05:17:15.613Z,94.48
2018-10-11T05:18:15.535Z,94.07
2018-10-11T05:19:15.520Z,94.39
2018-10-11T05:20:15.517Z,94.39
2018-10-11T05:21:15.601Z,94.48
2018-10-11T05:22:15.486Z,94.39
2018-10-11T05:23:15.475Z,94.59
2018-10-11T05:24:15.464Z,94.59
2018-10-11T05:25:15.454Z,94.69
2018-10-11T05:26:15.507Z,95.00
2018-10-11T05:27:15.432Z,94.79
2018-10-11T05:28:15.421Z,94.69
2018-10-11T05:29:15.422Z,94.59
2018-10-11T05:30:15.403Z,94.39
2018-10-11T05:31:15.390Z,94.39
2018-10-11T05:32:15.419Z,94.39
2018-10-11T05:33:15.367Z,94.18
2018-10-11T05:34:15.356Z,94.39
2018-10-11T05:35:15.347Z,94.48
2018-10-11T05:36:15.333Z,94.39
2018-10-11T05:37:15.324Z,94.18
2018-10-11T05:38:15.405Z,94.39
2018-10-11T05:39:15.303Z,94.48
2018-10-11T05:40:15.291Z,94.39
2018-10-11T05:41:15.284Z,94.28
2018-10-11T05:42:15.271Z,94.28
2018-10-11T05:43:15.262Z,94.18
2018-10-11T05:44:15.250Z,93.87
2018-10-11T05:45:15.237Z,93.71
2018-10-11T05:46:15.226Z,94.22
2018-10-11T05:47:15.214Z,94.32
2018-10-11T05:48:15.204Z,94.32
2018-10-11T05:49:15.191Z,94.32
2018-10-11T05:50:15.233Z,94.32
2018-10-11T05:51:15.173Z,94.22
2018-10-11T05:52:15.162Z,94.22
2018-10-11T05:53:15.149Z,94.32
2018-10-11T05:54:15.141Z,94.22
2018-10-11T05:55:15.128Z,94.12
2018-10-11T05:56:15.116Z,94.22
2018-10-11T05:57:15.109Z,94.12
2018-10-11T05:58:15.102Z,94.32
2018-10-11T05:59:15.084Z,94.12
2018-10-11T06:00:15.079Z,94.12
2018-10-11T06:01:15.063Z,94.12
2018-10-11T06:02:15.052Z,94.12
2018-10-11T06:03:15.045Z,94.02
2018-10-11T06:04:15.101Z,94.12
2018-10-11T06:05:15.021Z,94.22
2018-10-11T06:06:15.008Z,94.32
2018-10-11T06:07:14.996Z,94.53
2018-10-11T06:08:15.017Z,94.43
2018-10-11T06:09:14.974Z,94.02
2018-10-11T06:10:14.967Z,93.61
2018-10-11T06:11:14.970Z,93.71
2018-10-11T06:12:14.949Z,93.61
2018-10-11T06:13:14.945Z,93.40
2018-10-11T06:14:14.928Z,93.20
2018-10-11T06:15:14.910Z,93.15
2018-10-11T06:16:14.917Z,92.09
2018-10-11T06:17:14.900Z,90.37
2018-10-11T06:18:14.888Z,88.34
2018-10-11T06:19:14.883Z,86.87
2018-10-11T06:20:14.855Z,85.61
2018-10-11T06:21:14.847Z,84.34
2018-10-11T06:22:14.841Z,83.28
2018-10-11T06:23:14.822Z,81.82
2018-10-11T06:24:14.811Z,80.66
2018-10-11T06:25:14.803Z,79.91
2018-10-11T06:26:14.796Z,79.19
2018-10-11T06:27:14.779Z,78.75
2018-10-11T06:28:14.786Z,78.41
2018-10-11T06:29:14.757Z,77.90
2018-10-11T06:30:14.815Z,77.25
2018-10-11T06:31:14.738Z,77.25
2018-10-11T06:32:14.726Z,77.05
2018-10-11T06:33:14.715Z,76.55
2018-10-11T06:34:14.705Z,76.14
2018-10-11T06:35:14.692Z,75.53
2018-10-11T06:36:14.861Z,75.22
2018-10-11T06:37:14.685Z,75.02
2018-10-11T06:38:14.661Z,75.02
2018-10-11T06:39:14.651Z,74.82
2018-10-11T06:40:14.639Z,74.85
2018-10-11T06:41:14.628Z,75.06
2018-10-11T06:42:14.705Z,75.15
2018-10-11T06:43:14.615Z,76.07
2018-10-11T06:44:14.609Z,75.87
2018-10-11T06:45:14.594Z,76.68
2018-10-11T06:46:14.584Z,75.93
2018-10-11T06:47:14.563Z,75.83
2018-10-11T06:48:14.553Z,75.83
2018-10-11T06:49:14.608Z,75.12
2018-10-11T06:50:14.555Z,75.32
2018-10-11T06:51:14.521Z,75.73
2018-10-11T06:52:14.515Z,76.28
2018-10-11T06:53:14.497Z,77.13
2018-10-11T06:54:14.489Z,78.08
2018-10-11T06:55:14.479Z,78.93
2018-10-11T06:56:14.466Z,80.39
2018-10-11T06:57:14.467Z,81.75
2018-10-11T06:58:14.442Z,83.22
2018-10-11T06:59:14.433Z,83.97
2018-10-11T07:00:14.423Z,84.93
2018-10-11T07:01:14.413Z,85.75
2018-10-11T07:02:14.412Z,86.40
2018-10-11T07:03:14.393Z,87.01
2018-10-11T07:04:14.380Z,87.77
2018-10-11T07:05:14.369Z,88.07
2018-10-11T07:06:14.361Z,88.28
2018-10-11T07:07:14.362Z,88.38
2018-10-11T07:08:14.336Z,88.18
2018-10-11T07:09:14.326Z,88.18
2018-10-11T07:10:14.315Z,88.18
2018-10-11T07:11:14.303Z,88.38
2018-10-11T07:12:14.293Z,88.79
2018-10-11T07:13:14.282Z,88.65
2018-10-11T07:14:14.271Z,88.65
2018-10-11T07:15:14.260Z,88.65
2018-10-11T07:16:14.253Z,88.34
2018-10-11T07:17:14.238Z,87.69
2018-10-11T07:18:14.234Z,87.28
2018-10-11T07:19:14.221Z,87.89
2018-10-11T07:20:14.210Z,87.48
2018-10-11T07:21:14.208Z,87.89
2018-10-11T07:22:14.187Z,88.06
2018-10-11T07:23:14.183Z,87.44
2018-10-11T07:24:14.178Z,87.34
2018-10-11T07:25:14.150Z,87.65
2018-10-11T07:26:14.144Z,87.20
2018-10-11T07:27:14.130Z,86.99
2018-10-11T07:28:14.122Z,86.79
2018-10-11T07:29:14.108Z,86.79
2018-10-11T07:30:14.099Z,87.10
2018-10-11T07:31:14.093Z,87.30
2018-10-11T07:32:14.076Z,87.20
2018-10-11T07:33:14.066Z,86.79
2018-10-11T07:34:14.054Z,86.79
2018-10-11T07:35:14.209Z,86.48
2018-10-11T07:36:14.033Z,86.65
2018-10-11T07:37:14.022Z,87.10
2018-10-11T07:38:14.012Z,86.59
2018-10-11T07:39:14.001Z,86.99
2018-10-11T07:40:14.007Z,87.10
2018-10-11T07:41:13.978Z,87.30
2018-10-11T07:42:13.970Z,86.89
2018-10-11T07:43:14.067Z,86.48
2018-10-11T07:44:13.944Z,86.54
2018-10-11T07:45:13.934Z,86.75
2018-10-11T07:46:13.924Z,86.34
2018-10-11T07:47:14.003Z,87.46
2018-10-11T07:48:13.904Z,87.06
2018-10-11T07:49:13.893Z,87.36
2018-10-11T07:50:13.879Z,87.12
2018-10-11T07:51:13.885Z,86.61
2018-10-11T07:52:13.860Z,85.90
2018-10-11T07:53:13.850Z,85.75
2018-10-11T07:54:13.837Z,85.85
2018-10-11T07:55:13.827Z,84.49
2018-10-11T07:56:13.817Z,85.61
2018-10-11T07:57:13.810Z,85.20
2018-10-11T07:58:13.793Z,84.28
2018-10-11T07:59:13.784Z,84.86
2018-10-11T08:00:13.774Z,83.74
2018-10-11T08:01:13.809Z,84.35
2018-10-11T08:02:13.751Z,84.14
2018-10-11T08:03:13.742Z,84.25
2018-10-11T08:04:13.731Z,83.70
2018-10-11T08:05:13.717Z,83.90
2018-10-11T08:06:13.709Z,83.90
2018-10-11T08:07:13.742Z,83.59
2018-10-11T08:08:13.688Z,83.45
2018-10-11T08:09:13.675Z,82.54
2018-10-11T08:10:13.703Z,82.95
2018-10-11T08:11:13.702Z,82.64
2018-10-11T08:12:13.692Z,82.34
2018-10-11T08:13:13.631Z,83.36
2018-10-11T08:14:13.622Z,82.00
2018-10-11T08:15:13.610Z,81.89
2018-10-11T08:16:13.765Z,81.59
2018-10-11T08:17:13.939Z,81.14
2018-10-11T08:18:13.580Z,81.65
2018-10-11T08:19:13.814Z,81.65
2018-10-11T08:20:13.679Z,80.63
2018-10-11T08:21:13.548Z,82.53
2018-10-11T08:22:13.537Z,81.82
2018-10-11T08:23:13.525Z,81.00
2018-10-11T08:24:13.522Z,80.46
2018-10-11T08:25:13.680Z,80.15
2018-10-11T08:26:13.814Z,80.15
2018-10-11T08:27:13.540Z,80.05
2018-10-11T08:28:13.470Z,79.44
2018-10-11T08:29:13.463Z,79.34
2018-10-11T08:30:13.549Z,79.91
2018-10-11T08:31:13.439Z,79.41
2018-10-11T08:32:13.487Z,79.61
2018-10-11T08:33:13.541Z,79.61
2018-10-11T08:34:13.406Z,79.91
2018-10-11T08:35:13.395Z,80.01
2018-10-11T08:36:13.386Z,79.71
2018-10-11T08:37:13.371Z,79.71
2018-10-11T08:38:13.553Z,79.07
2018-10-11T08:39:13.351Z,79.67
2018-10-11T08:40:13.341Z,79.37
2018-10-11T08:41:13.331Z,78.93
2018-10-11T08:42:13.322Z,79.23
2018-10-11T08:43:13.309Z,79.13
2018-10-11T08:44:13.358Z,78.93
2018-10-11T08:45:13.287Z,78.93
2018-10-11T08:46:13.276Z,78.93
2018-10-11T08:47:13.263Z,78.58
2018-10-11T08:48:13.255Z,78.38
2018-10-11T08:49:13.339Z,77.78
2018-10-11T08:50:13.254Z,78.08
2018-10-11T08:51:13.224Z,77.47
2018-10-11T08:52:13.209Z,77.44
2018-10-11T08:53:13.206Z,77.23
2018-10-11T08:54:13.190Z,77.44
2018-10-11T08:55:13.178Z,76.28
2018-10-11T08:56:13.170Z,76.69
2018-10-11T08:57:13.155Z,76.69
2018-10-11T08:58:13.148Z,77.06
2018-10-11T08:59:13.243Z,76.15
2018-10-11T09:00:13.126Z,76.75
2018-10-11T09:01:13.114Z,76.86
2018-10-11T09:02:13.102Z,76.86
2018-10-11T09:03:13.158Z,76.51
2018-10-11T09:04:13.119Z,76.31
2018-10-11T09:05:13.149Z,76.01
2018-10-11T09:06:13.069Z,76.42
2018-10-11T09:07:13.049Z,76.31
2018-10-11T09:08:13.039Z,76.01
2018-10-11T09:09:13.026Z,76.69
2018-10-11T09:10:13.021Z,76.08
2018-10-11T09:11:13.021Z,76.18
2018-10-11T09:12:12.995Z,76.18
2018-10-11T09:13:12.987Z,75.17
2018-10-11T09:14:12.973Z,75.64
2018-10-11T09:15:12.969Z,75.94
2018-10-11T09:16:12.951Z,75.84
2018-10-11T09:17:12.954Z,75.54
2018-10-11T09:18:12.932Z,75.94
2018-10-11T09:19:12.920Z,75.54
2018-10-11T09:20:12.911Z,74.53
2018-10-11T09:21:12.903Z,75.10
2018-10-11T09:22:12.889Z,75.20
2018-10-11T09:23:12.883Z,74.49
2018-10-11T09:24:12.867Z,74.09
2018-10-11T09:25:12.855Z,75.10
2018-10-11T09:26:12.845Z,74.56
2018-10-11T09:27:12.834Z,74.46
2018-10-11T09:28:12.826Z,74.35
2018-10-11T09:29:12.812Z,74.26
2018-10-11T09:30:12.828Z,73.71
2018-10-11T09:31:12.803Z,73.62
2018-10-11T09:32:12.780Z,72.91
2018-10-11T09:33:12.769Z,73.18
2018-10-11T09:34:12.758Z,73.18
2018-10-11T09:35:12.748Z,73.27
2018-10-11T09:36:12.769Z,73.18
2018-10-11T09:37:12.728Z,72.87
2018-10-11T09:38:12.717Z,73.18
2018-10-11T09:39:12.704Z,73.27
2018-10-11T09:40:12.697Z,73.18
2018-10-11T09:41:12.687Z,72.97
2018-10-11T09:42:12.671Z,73.48
2018-10-11T09:43:12.757Z,72.24
2018-10-11T09:44:12.654Z,72.54
2018-10-11T09:45:12.641Z,72.54
2018-10-11T09:46:12.631Z,71.53
2018-10-11T09:47:12.617Z,71.09
2018-10-11T09:48:12.621Z,71.30
2018-10-11T09:49:12.596Z,71.09
2018-10-11T09:50:12.590Z,71.26
2018-10-11T09:51:12.576Z,70.95
2018-10-11T09:52:12.666Z,70.86
2018-10-11T09:53:12.557Z,69.15
2018-10-11T09:54:12.551Z,69.25
2018-10-11T09:55:12.534Z,68.51
2018-10-11T09:56:12.522Z,68.81
2018-10-11T09:57:12.511Z,68.01
2018-10-11T09:58:12.501Z,68.41
2018-10-11T09:59:12.492Z,68.18
2018-10-11T10:00:12.477Z,69.38
2018-10-11T10:01:12.470Z,69.05
2018-10-11T10:02:12.465Z,68.34
2018-10-11T10:03:12.462Z,68.85
2018-10-11T10:04:12.436Z,69.35
2018-10-11T10:05:12.425Z,69.15
2018-10-11T10:06:12.415Z,68.45
2018-10-11T10:07:12.404Z,66.90
2018-10-11T10:08:12.392Z,65.20
2018-10-11T10:09:12.383Z,65.06
2018-10-11T10:10:12.373Z,65.36
2018-10-11T10:11:12.365Z,64.16
2018-10-11T10:12:12.350Z,64.13
2018-10-11T10:13:12.339Z,64.43
2018-10-11T10:14:12.329Z,65.71
2018-10-11T10:15:12.316Z,65.91
2018-10-11T10:16:12.306Z,65.50
2018-10-11T10:17:12.297Z,66.21
2018-10-11T10:18:12.286Z,63.50
2018-10-11T10:19:12.275Z,66.51
2018-10-11T10:20:12.264Z,66.11
2018-10-11T10:21:12.371Z,65.50
2018-10-11T10:22:12.243Z,66.11
2018-10-11T10:23:12.229Z,65.94
2018-10-11T10:24:12.220Z,65.64
2018-10-11T10:25:12.208Z,64.83
2018-10-11T10:26:12.199Z,66.04
2018-10-11T10:27:12.326Z,65.74
2018-10-11T10:28:12.177Z,67.31
2018-10-11T10:29:12.166Z,67.11
2018-10-11T10:30:12.155Z,66.08
2018-10-11T10:31:12.144Z,64.07
2018-10-11T10:32:12.136Z,64.67
2018-10-11T10:33:12.128Z,65.27
2018-10-11T10:34:12.114Z,65.47
2018-10-11T10:35:12.105Z,65.38
2018-10-11T10:36:12.091Z,65.17
2018-10-11T10:37:12.080Z,65.77
2018-10-11T10:38:12.070Z,66.51
2018-10-11T10:39:12.059Z,66.00
2018-10-11T10:40:12.049Z,66.00
2018-10-11T10:41:12.038Z,65.61
2018-10-11T10:42:12.035Z,64.00
2018-10-11T10:43:12.017Z,62.50
2018-10-11T10:44:12.005Z,63.60
2018-10-11T10:45:12.000Z,65.77
2018-10-11T10:46:11.984Z,63.57
2018-10-11T10:47:11.976Z,64.37
2018-10-11T10:48:11.964Z,65.24
2018-10-11T10:49:11.952Z,62.23
2018-10-11T10:50:11.941Z,63.11
2018-10-11T10:51:11.931Z,61.81
2018-10-11T10:52:11.920Z,61.98
2018-10-11T10:53:11.911Z,64.18
2018-10-11T10:54:11.942Z,60.98
2018-10-11T10:55:11.890Z,61.74
2018-10-11T10:56:11.878Z,62.95
2018-10-11T10:57:11.865Z,62.35
2018-10-11T10:58:11.855Z,62.24
2018-10-11T10:59:11.845Z,60.15
2018-10-11T11:00:11.838Z,60.07
2018-10-11T11:01:11.825Z,60.07
2018-10-11T11:02:11.811Z,59.17
2018-10-11T11:03:11.803Z,59.64
2018-10-11T11:04:11.790Z,59.74
2018-10-11T11:05:11.786Z,58.94
2018-10-11T11:06:11.777Z,59.55
2018-10-11T11:07:11.766Z,59.14
2018-10-11T11:08:11.748Z,59.24
2018-10-11T11:09:11.743Z,59.44
2018-10-11T11:10:11.732Z,58.74
2018-10-11T11:11:11.719Z,59.35
2018-10-11T11:12:11.706Z,58.85
2018-10-11T11:13:11.806Z,58.61
2018-10-11T11:14:11.683Z,58.42
2018-10-11T11:15:11.673Z,58.11
2018-10-11T11:16:11.664Z,58.31
2018-10-11T11:17:11.652Z,58.22
2018-10-11T11:18:11.642Z,58.42
2018-10-11T11:19:11.630Z,58.61
2018-10-11T11:20:11.622Z,59.61
2018-10-11T11:21:11.611Z,59.11
2018-10-11T11:22:11.599Z,59.82
2018-10-11T11:23:11.588Z,58.61
2018-10-11T11:24:11.598Z,58.72
2018-10-11T11:25:11.602Z,59.61
2018-10-11T11:26:11.557Z,58.92
2018-10-11T11:27:11.557Z,58.81
2018-10-11T11:28:11.533Z,58.72
2018-10-11T11:29:11.524Z,58.52
2018-10-11T11:30:11.513Z,58.31
2018-10-11T11:31:11.594Z,58.29
2018-10-11T11:32:11.492Z,60.39
2018-10-11T11:33:11.481Z,60.58
2018-10-11T11:34:11.471Z,58.81
2018-10-11T11:35:11.459Z,59.94
2018-10-11T11:36:11.446Z,58.34
2018-10-11T11:37:11.437Z,57.62
2018-10-11T11:38:11.429Z,57.22
2018-10-11T11:39:11.419Z,57.29
2018-10-11T11:40:11.495Z,56.59
2018-10-11T11:41:11.394Z,57.29
2018-10-11T11:42:11.382Z,57.79
2018-10-11T11:43:11.377Z,56.49
2018-10-11T11:44:11.365Z,56.59
2018-10-11T11:45:11.364Z,56.79
2018-10-11T11:46:11.357Z,56.59
2018-10-11T11:47:11.329Z,56.76
2018-10-11T11:48:11.320Z,57.06
2018-10-11T11:49:11.330Z,58.66
2018-10-11T11:50:11.314Z,59.66
2018-10-11T11:51:11.311Z,58.29
2018-10-11T11:52:11.312Z,57.56
2018-10-11T11:53:11.293Z,57.56
2018-10-11T11:54:11.263Z,56.83
2018-10-11T11:55:11.246Z,56.34
2018-10-11T11:56:11.240Z,56.10
2018-10-11T11:57:11.221Z,58.50
2018-10-11T11:58:11.211Z,58.41
2018-10-11T11:59:11.227Z,59.13
2018-10-11T12:00:11.191Z,56.66
2018-10-11T12:01:11.179Z,56.96
2018-10-11T12:02:11.257Z,57.06
2018-10-11T12:03:11.156Z,57.23
2018-10-11T12:04:11.148Z,56.43
2018-10-11T12:05:11.286Z,56.34
2018-10-11T12:06:11.126Z,57.20
2018-10-11T12:07:11.115Z,58.63
2018-10-11T12:08:11.104Z,56.14
2018-10-11T12:09:11.094Z,57.14
2018-10-11T12:10:11.084Z,58.03
2018-10-11T12:11:11.072Z,56.53
2018-10-11T12:12:11.060Z,57.33
2018-10-11T12:13:11.053Z,58.73
2018-10-11T12:14:11.042Z,56.43
2018-10-11T12:15:11.028Z,56.43
2018-10-11T12:16:11.018Z,56.14
2018-10-11T12:17:11.008Z,55.81
2018-10-11T12:18:10.995Z,56.71
2018-10-11T12:19:10.985Z,55.21
2018-10-11T12:20:10.975Z,55.21
2018-10-11T12:21:10.983Z,55.71
2018-10-11T12:22:11.004Z,54.81
2018-10-11T12:23:10.942Z,54.71
2018-10-11T12:24:10.931Z,54.79
2018-10-11T12:25:10.920Z,55.21
2018-10-11T12:26:10.911Z,54.61
2018-10-11T12:27:10.897Z,55.21
2018-10-11T12:28:10.943Z,55.41
2018-10-11T12:29:10.888Z,56.41
2018-10-11T12:30:10.870Z,56.51
2018-10-11T12:31:10.855Z,55.04
2018-10-11T12:32:10.846Z,56.43
2018-10-11T12:33:10.878Z,56.53
2018-10-11T12:34:10.823Z,54.74
2018-10-11T12:35:10.817Z,54.44
2018-10-11T12:36:10.802Z,54.31
2018-10-11T12:37:10.793Z,54.01
2018-10-11T12:38:10.782Z,56.28
2018-10-11T12:39:10.769Z,57.08
2018-10-11T12:40:10.758Z,54.91
2018-10-11T12:41:10.748Z,54.81
2018-10-11T12:42:10.741Z,54.71
2018-10-11T12:43:10.724Z,54.31
2018-10-11T12:44:10.730Z,54.51
2018-10-11T12:45:10.753Z,53.88
2018-10-11T12:46:10.694Z,57.08
2018-10-11T12:47:10.684Z,54.11
2018-10-11T12:48:10.672Z,54.21
2018-10-11T12:49:10.679Z,54.31
2018-10-11T12:50:10.839Z,54.41
2018-10-11T12:51:10.639Z,54.51
2018-10-11T12:52:10.641Z,54.38
2018-10-11T12:53:10.620Z,54.81
2018-10-11T12:54:10.609Z,55.01
2018-10-11T12:55:10.759Z,55.21
2018-10-11T12:56:10.586Z,55.31
2018-10-11T12:57:15.075Z,54.98
2018-10-11T12:58:10.566Z,55.88
2018-10-11T12:59:10.555Z,56.90
2018-10-11T13:00:10.544Z,54.31
2018-10-11T13:01:10.535Z,54.51